sensor_id;sensor_type;location;lat;lon;timestamp;P1;durP1;ratioP1;P2;durP2;ratioP2
13685;SDS011;6915;48.296;8.874;2024-03-23T01:42:57;1.87;;;1.77;;
13685;SDS011;6915;48.296;8.874;2024-03-23T01:45:25;2.73;;;1.50;;
13685;SDS011;6915;48.296;8.874;2024-03-23T01:47:51;2.37;;;1.60;;
13685;SDS011;6915;48.296;8.874;2024-03-23T01:50:19;4.40;;;1.60;;
13685;SDS011;6915;48.296;8.874;2024-03-23T01:52:45;2.60;;;1.70;;
13685;SDS011;6915;48.296;8.874;2024-03-23T01:55:12;1.73;;;1.63;;
13685;SDS011;6915;48.296;8.874;2024-03-23T12:39:15;3.43;;;1.93;;
13685;SDS011;6915;48.296;8.874;2024-03-23T12:41:43;5.70;;;2.37;;
13685;SDS011;6915;48.296;8.874;2024-03-23T12:44:09;3.13;;;2.20;;
13685;SDS011;6915;48.296;8.874;2024-03-23T12:46:37;3.33;;;1.83;;
13685;SDS011;6915;48.296;8.874;2024-03-23T12:49:03;5.90;;;2.10;;
13685;SDS011;6915;48.296;8.874;2024-03-23T12:51:30;4.83;;;2.37;;
13685;SDS011;6915;48.296;8.874;2024-03-23T12:53:56;4.13;;;2.20;;
13685;SDS011;6915;48.296;8.874;2024-03-23T12:56:25;6.33;;;2.33;;
13685;SDS011;6915;48.296;8.874;2024-03-23T12:58:53;6.33;;;2.10;;
13685;SDS011;6915;48.296;8.874;2024-03-23T13:01:25;6.43;;;2.07;;
13685;SDS011;6915;48.296;8.874;2024-03-23T13:03:54;4.77;;;2.13;;
13685;SDS011;6915;48.296;8.874;2024-03-23T13:29:46;4.40;;;1.77;;
13685;SDS011;6915;48.296;8.874;2024-03-23T13:32:13;5.10;;;1.80;;
13685;SDS011;6915;48.296;8.874;2024-03-23T13:34:52;5.67;;;1.73;;
13685;SDS011;6915;48.296;8.874;2024-03-23T13:55:28;3.07;;;1.20;;
13685;SDS011;6915;48.296;8.874;2024-03-23T13:57:55;5.07;;;1.40;;
13685;SDS011;6915;48.296;8.874;2024-03-23T14:00:21;3.63;;;1.03;;
13685;SDS011;6915;48.296;8.874;2024-03-23T14:02:48;4.53;;;0.80;;
13685;SDS011;6915;48.296;8.874;2024-03-23T14:05:14;3.27;;;1.03;;
13685;SDS011;6915;48.296;8.874;2024-03-23T14:07:41;2.80;;;1.30;;
13685;SDS011;6915;48.296;8.874;2024-03-23T14:10:07;2.07;;;0.97;;
13685;SDS011;6915;48.296;8.874;2024-03-23T14:12:37;5.07;;;1.23;;
13685;SDS011;6915;48.296;8.874;2024-03-23T14:15:04;4.37;;;1.00;;
13685;SDS011;6915;48.296;8.874;2024-03-23T14:17:32;1.40;;;1.00;;
13685;SDS011;6915;48.296;8.874;2024-03-23T14:19:57;3.00;;;1.20;;
13685;SDS011;6915;48.296;8.874;2024-03-23T14:22:26;2.57;;;1.20;;
13685;SDS011;6915;48.296;8.874;2024-03-23T14:24:52;2.97;;;0.90;;
13685;SDS011;6915;48.296;8.874;2024-03-23T14:27:19;1.67;;;0.90;;
13685;SDS011;6915;48.296;8.874;2024-03-23T14:29:46;3.27;;;0.93;;
13685;SDS011;6915;48.296;8.874;2024-03-23T14:32:15;1.50;;;0.80;;
13685;SDS011;6915;48.296;8.874;2024-03-23T14:34:40;4.40;;;1.10;;
13685;SDS011;6915;48.296;8.874;2024-03-23T14:37:08;1.53;;;0.90;;
13685;SDS011;6915;48.296;8.874;2024-03-23T14:39:33;1.83;;;0.80;;
13685;SDS011;6915;48.296;8.874;2024-03-23T14:42:00;2.43;;;1.07;;
13685;SDS011;6915;48.296;8.874;2024-03-23T14:44:27;3.67;;;0.87;;
13685;SDS011;6915;48.296;8.874;2024-03-23T14:46:55;1.50;;;1.30;;
13685;SDS011;6915;48.296;8.874;2024-03-23T14:49:21;3.27;;;0.93;;
13685;SDS011;6915;48.296;8.874;2024-03-23T14:51:49;3.07;;;1.30;;
13685;SDS011;6915;48.296;8.874;2024-03-23T14:54:15;1.83;;;0.80;;
13685;SDS011;6915;48.296;8.874;2024-03-23T14:56:42;3.07;;;0.90;;
13685;SDS011;6915;48.296;8.874;2024-03-23T14:59:08;3.07;;;0.83;;
13685;SDS011;6915;48.296;8.874;2024-03-23T15:01:35;3.80;;;1.43;;
13685;SDS011;6915;48.296;8.874;2024-03-23T15:04:05;2.50;;;1.20;;
13685;SDS011;6915;48.296;8.874;2024-03-23T15:06:33;3.73;;;1.30;;
13685;SDS011;6915;48.296;8.874;2024-03-23T15:08:59;4.53;;;1.40;;
13685;SDS011;6915;48.296;8.874;2024-03-23T15:11:26;2.20;;;1.27;;
13685;SDS011;6915;48.296;8.874;2024-03-23T15:13:52;3.80;;;1.40;;
13685;SDS011;6915;48.296;8.874;2024-03-23T15:16:20;3.17;;;1.20;;
13685;SDS011;6915;48.296;8.874;2024-03-23T15:18:46;3.53;;;1.13;;
13685;SDS011;6915;48.296;8.874;2024-03-23T15:21:15;4.70;;;1.23;;
13685;SDS011;6915;48.296;8.874;2024-03-23T15:23:45;5.33;;;1.30;;
13685;SDS011;6915;48.296;8.874;2024-03-23T15:26:13;3.43;;;1.43;;
13685;SDS011;6915;48.296;8.874;2024-03-23T15:28:38;3.50;;;1.67;;
13685;SDS011;6915;48.296;8.874;2024-03-23T15:31:08;2.13;;;1.10;;
13685;SDS011;6915;48.296;8.874;2024-03-23T15:33:35;3.17;;;1.57;;
13685;SDS011;6915;48.296;8.874;2024-03-23T15:36:02;4.70;;;1.40;;
13685;SDS011;6915;48.296;8.874;2024-03-23T15:38:30;2.77;;;1.30;;
13685;SDS011;6915;48.296;8.874;2024-03-23T15:40:58;3.73;;;1.33;;
13685;SDS011;6915;48.296;8.874;2024-03-23T15:43:24;3.40;;;1.40;;
13685;SDS011;6915;48.296;8.874;2024-03-23T15:45:54;2.57;;;0.90;;
13685;SDS011;6915;48.296;8.874;2024-03-23T15:48:20;1.90;;;1.00;;
13685;SDS011;6915;48.296;8.874;2024-03-23T15:50:50;2.50;;;0.77;;
13685;SDS011;6915;48.296;8.874;2024-03-23T15:53:18;1.97;;;0.83;;
13685;SDS011;6915;48.296;8.874;2024-03-23T15:55:46;3.60;;;1.30;;
13685;SDS011;6915;48.296;8.874;2024-03-23T15:58:18;3.87;;;1.00;;
13685;SDS011;6915;48.296;8.874;2024-03-23T16:00:45;2.83;;;0.90;;
13685;SDS011;6915;48.296;8.874;2024-03-23T16:03:11;3.43;;;0.80;;
13685;SDS011;6915;48.296;8.874;2024-03-23T16:05:38;2.60;;;1.03;;
13685;SDS011;6915;48.296;8.874;2024-03-23T16:08:04;3.17;;;1.20;;
13685;SDS011;6915;48.296;8.874;2024-03-23T16:10:33;3.67;;;1.03;;
13685;SDS011;6915;48.296;8.874;2024-03-23T16:13:01;3.43;;;1.00;;
13685;SDS011;6915;48.296;8.874;2024-03-23T16:15:28;2.73;;;1.30;;
13685;SDS011;6915;48.296;8.874;2024-03-23T16:17:53;5.13;;;1.47;;
13685;SDS011;6915;48.296;8.874;2024-03-23T16:20:20;2.20;;;0.83;;
13685;SDS011;6915;48.296;8.874;2024-03-23T16:22:46;3.33;;;1.00;;
13685;SDS011;6915;48.296;8.874;2024-03-23T16:25:13;3.07;;;1.10;;
13685;SDS011;6915;48.296;8.874;2024-03-23T16:27:39;3.13;;;1.10;;
13685;SDS011;6915;48.296;8.874;2024-03-23T16:30:10;1.50;;;0.73;;
13685;SDS011;6915;48.296;8.874;2024-03-23T16:32:37;3.13;;;1.00;;
13685;SDS011;6915;48.296;8.874;2024-03-23T16:35:04;2.20;;;0.90;;
13685;SDS011;6915;48.296;8.874;2024-03-23T16:37:30;1.73;;;0.83;;
13685;SDS011;6915;48.296;8.874;2024-03-23T16:39:57;3.53;;;1.00;;
13685;SDS011;6915;48.296;8.874;2024-03-23T16:42:23;1.43;;;1.10;;
13685;SDS011;6915;48.296;8.874;2024-03-23T16:44:50;2.10;;;0.77;;
13685;SDS011;6915;48.296;8.874;2024-03-23T16:47:17;4.23;;;1.10;;
13685;SDS011;6915;48.296;8.874;2024-03-23T16:49:44;2.13;;;0.93;;
13685;SDS011;6915;48.296;8.874;2024-03-23T16:52:10;4.03;;;1.10;;
13685;SDS011;6915;48.296;8.874;2024-03-23T16:54:37;2.80;;;1.10;;
13685;SDS011;6915;48.296;8.874;2024-03-23T16:57:03;3.83;;;1.23;;
13685;SDS011;6915;48.296;8.874;2024-03-23T16:59:30;2.47;;;1.10;;
13685;SDS011;6915;48.296;8.874;2024-03-23T17:01:56;2.67;;;1.00;;
13685;SDS011;6915;48.296;8.874;2024-03-23T17:04:24;2.57;;;1.77;;
13685;SDS011;6915;48.296;8.874;2024-03-23T17:06:51;3.87;;;1.10;;
13685;SDS011;6915;48.296;8.874;2024-03-23T17:09:17;2.73;;;1.07;;
13685;SDS011;6915;48.296;8.874;2024-03-23T17:11:43;1.60;;;1.07;;
13685;SDS011;6915;48.296;8.874;2024-03-23T17:14:11;2.87;;;1.23;;
13685;SDS011;6915;48.296;8.874;2024-03-23T17:16:39;3.53;;;1.37;;
13685;SDS011;6915;48.296;8.874;2024-03-23T17:19:07;2.37;;;1.10;;
13685;SDS011;6915;48.296;8.874;2024-03-23T17:21:35;1.00;;;0.90;;
13685;SDS011;6915;48.296;8.874;2024-03-23T17:24:05;1.63;;;0.80;;
13685;SDS011;6915;48.296;8.874;2024-03-23T17:26:31;2.33;;;1.03;;
13685;SDS011;6915;48.296;8.874;2024-03-23T17:28:58;2.10;;;0.93;;
13685;SDS011;6915;48.296;8.874;2024-03-23T17:31:24;1.00;;;0.90;;
13685;SDS011;6915;48.296;8.874;2024-03-23T17:33:51;1.80;;;0.97;;
13685;SDS011;6915;48.296;8.874;2024-03-23T17:36:17;1.37;;;1.00;;
13685;SDS011;6915;48.296;8.874;2024-03-23T17:38:53;1.90;;;0.80;;
13685;SDS011;6915;48.296;8.874;2024-03-23T17:41:19;1.10;;;0.80;;
13685;SDS011;6915;48.296;8.874;2024-03-23T17:43:46;0.90;;;0.60;;
13685;SDS011;6915;48.296;8.874;2024-03-23T17:46:12;0.83;;;0.70;;
13685;SDS011;6915;48.296;8.874;2024-03-23T17:48:39;0.80;;;0.53;;
13685;SDS011;6915;48.296;8.874;2024-03-23T17:51:05;2.50;;;1.37;;
13685;SDS011;6915;48.296;8.874;2024-03-23T17:53:36;0.97;;;0.50;;
13685;SDS011;6915;48.296;8.874;2024-03-23T17:56:04;1.23;;;0.70;;
13685;SDS011;6915;48.296;8.874;2024-03-23T17:58:32;1.40;;;0.80;;
13685;SDS011;6915;48.296;8.874;2024-03-23T18:00:59;1.80;;;0.60;;
13685;SDS011;6915;48.296;8.874;2024-03-23T18:03:31;1.37;;;0.50;;
13685;SDS011;6915;48.296;8.874;2024-03-23T18:05:58;0.87;;;0.60;;
13685;SDS011;6915;48.296;8.874;2024-03-23T18:08:25;1.63;;;0.83;;
13685;SDS011;6915;48.296;8.874;2024-03-23T18:10:51;0.77;;;0.77;;
13685;SDS011;6915;48.296;8.874;2024-03-23T18:13:20;1.47;;;1.37;;
13685;SDS011;6915;48.296;8.874;2024-03-23T18:15:45;2.83;;;2.00;;
13685;SDS011;6915;48.296;8.874;2024-03-23T18:18:21;3.07;;;2.37;;
13685;SDS011;6915;48.296;8.874;2024-03-23T18:20:47;2.17;;;1.97;;
13685;SDS011;6915;48.296;8.874;2024-03-23T18:23:14;3.00;;;0.93;;
